Time;durP1;ratioP1;P1;durP2;ratioP2;P2;SDS_P1;SDS_P2;PMS_P1;PMS_P2;Temp;Humidity;BMP_temperature;BMP_pressure;BME280_temperature;BME280_humidity;BME280_pressure;Samples;Min_cycle;Max_cycle;Signal;HPM_P1;HPM_P2
2023/11/11 00:01:57;;;;;;;6.53;5.93;;;6.80;99.90;;;;;;5035209;28;20687;-72
2023/11/11 00:04:24;;;;;;;7.30;6.70;;;6.90;99.90;;;;;;5039769;28;20215;-72
2023/11/11 00:06:49;;;;;;;7.17;6.50;;;6.90;99.90;;;;;;5037411;28;20186;-72
2023/11/11 00:09:16;;;;;;;6.57;6.07;;;6.90;99.90;;;;;;5030610;28;20179;-71
2023/11/11 00:11:44;;;;;;;7.13;6.53;;;7.00;99.90;;;;;;5024985;28;20203;-71
2023/11/11 00:14:11;;;;;;;7.90;7.10;;;7.00;99.90;;;;;;5026385;28;20203;-71
2023/11/11 00:16:37;;;;;;;8.33;7.53;;;7.00;99.90;;;;;;5024706;28;20524;-71
2023/11/11 00:19:02;;;;;;;8.33;7.37;;;7.00;99.90;;;;;;5031721;28;20242;-71
2023/11/11 00:21:28;;;;;;;10.13;7.80;;;7.00;99.90;;;;;;5029390;28;20194;-71
2023/11/11 00:23:57;;;;;;;12.97;8.43;;;7.00;99.90;;;;;;5030501;28;20563;-71
2023/11/11 00:26:23;;;;;;;13.63;10.07;;;7.10;99.90;;;;;;5030336;28;20274;-72
2023/11/11 00:28:49;;;;;;;15.80;12.37;;;7.10;99.90;;;;;;5029056;28;20743;-71
2023/11/11 00:31:15;;;;;;;25.80;15.90;;;7.10;99.90;;;;;;5029032;28;20180;-71
2023/11/11 00:33:42;;;;;;;21.37;15.20;;;7.10;99.90;;;;;;5029941;28;20195;-72
2023/11/11 00:36:08;;;;;;;28.73;17.57;;;7.20;99.90;;;;;;5029102;28;20175;-71
2023/11/11 00:38:36;;;;;;;30.03;18.33;;;7.20;99.90;;;;;;5024877;28;20183;-70
2023/11/11 00:41:03;;;;;;;25.97;16.40;;;7.20;99.90;;;;;;5012617;28;20278;-71
2023/11/11 00:43:29;;;;;;;29.80;18.87;;;7.30;99.90;;;;;;5029523;28;21959;-72
2023/11/11 00:45:55;;;;;;;30.37;18.57;;;7.30;99.90;;;;;;5030937;28;20637;-73
2023/11/11 00:48:21;;;;;;;32.17;20.20;;;7.30;99.90;;;;;;5033233;28;20171;-70
2023/11/11 00:50:46;;;;;;;34.60;21.60;;;7.30;99.90;;;;;;5033490;28;20262;-71
2023/11/11 00:53:12;;;;;;;39.33;23.87;;;7.30;99.90;;;;;;5032569;28;20334;-72
2023/11/11 00:55:38;;;;;;;34.43;22.37;;;7.30;99.90;;;;;;5034786;28;20188;-70
2023/11/11 00:58:03;;;;;;;29.03;22.10;;;7.30;99.90;;;;;;5040907;28;20198;-70
2023/11/11 01:00:30;;;;;;;36.73;23.90;;;7.20;99.90;;;;;;5015289;28;20217;-71
2023/11/11 01:02:56;;;;;;;35.37;24.13;;;7.20;99.90;;;;;;5022086;28;20219;-71
2023/11/11 01:05:22;;;;;;;36.57;24.70;;;7.20;99.90;;;;;;5010852;28;20177;-72
2023/11/11 01:07:47;;;;;;;34.60;23.57;;;7.20;99.90;;;;;;5038861;28;20180;-72
2023/11/11 01:10:13;;;;;;;34.43;23.50;;;7.20;99.90;;;;;;5026891;28;20211;-71
2023/11/11 01:12:39;;;;;;;38.90;25.23;;;7.20;99.90;;;;;;5040048;28;20183;-71
2023/11/11 01:15:08;;;;;;;34.67;22.73;;;7.20;99.90;;;;;;5032946;28;20286;-71
2023/11/11 01:17:35;;;;;;;36.27;25.03;;;7.20;99.90;;;;;;5033213;28;20211;-71
2023/11/11 01:20:02;;;;;;;41.97;28.50;;;7.20;99.90;;;;;;5034997;28;20179;-73
2023/11/11 01:22:27;;;;;;;39.03;25.93;;;7.20;99.90;;;;;;5041774;28;20195;-74
2023/11/11 01:24:53;;;;;;;42.30;26.70;;;7.20;99.90;;;;;;5032457;28;20246;-71
2023/11/11 01:27:19;;;;;;;43.50;27.47;;;7.20;99.90;;;;;;5031368;28;20270;-73
2023/11/11 01:29:44;;;;;;;38.73;27.20;;;7.30;99.90;;;;;;5032894;28;20625;-73
2023/11/11 01:32:10;;;;;;;38.93;27.83;;;7.20;99.90;;;;;;5032475;28;20179;-72
2023/11/11 01:34:39;;;;;;;37.47;25.90;;;7.20;99.90;;;;;;5032230;28;20494;-73
2023/11/11 01:37:07;;;;;;;40.03;27.43;;;7.20;99.90;;;;;;5032630;28;20183;-73
2023/11/11 01:39:34;;;;;;;40.20;27.73;;;7.20;99.90;;;;;;5031762;28;20183;-72
2023/11/11 01:41:59;;;;;;;45.03;27.93;;;7.20;99.90;;;;;;5032259;28;20791;-72
2023/11/11 01:44:25;;;;;;;38.27;25.57;;;7.20;99.90;;;;;;5032474;28;20218;-72
2023/11/11 01:46:51;;;;;;;40.17;27.27;;;7.10;99.90;;;;;;5032238;28;20172;-73
2023/11/11 01:49:18;;;;;;;37.80;26.40;;;7.10;99.90;;;;;;5032587;28;20190;-73
2023/11/11 01:51:44;;;;;;;38.47;25.03;;;7.10;99.90;;;;;;5032294;28;20541;-72
2023/11/11 01:54:11;;;;;;;34.77;24.60;;;7.00;99.90;;;;;;5031549;28;20231;-73
2023/11/11 01:56:41;;;;;;;37.97;23.87;;;7.00;99.90;;;;;;5031318;28;20266;-72
2023/11/11 01:59:07;;;;;;;35.80;23.83;;;7.00;99.90;;;;;;5032248;28;20684;-72
2023/11/11 02:01:33;;;;;;;29.37;20.67;;;6.90;99.90;;;;;;5027223;28;20267;-71
2023/11/11 02:03:59;;;;;;;31.70;22.00;;;6.90;99.90;;;;;;5013965;28;20782;-71
2023/11/11 02:06:26;;;;;;;35.87;21.40;;;6.90;99.90;;;;;;5014561;28;20334;-75
2023/11/11 02:08:52;;;;;;;31.10;21.20;;;6.90;99.90;;;;;;5027781;28;20183;-71
2023/11/11 02:11:18;;;;;;;35.27;22.07;;;6.90;99.90;;;;;;5031629;28;20183;-73
2023/11/11 02:13:44;;;;;;;27.83;20.30;;;6.90;99.90;;;;;;5031200;28;20238;-72
2023/11/11 02:16:11;;;;;;;28.97;19.50;;;6.80;99.90;;;;;;5047219;28;20258;-72
2023/11/11 02:18:37;;;;;;;30.67;20.33;;;6.80;99.90;;;;;;5030771;28;20597;-73
2023/11/11 02:21:03;;;;;;;23.60;18.37;;;6.90;99.90;;;;;;5032421;28;20191;-72
2023/11/11 02:23:38;;;;;;;26.97;18.73;;;6.80;99.90;;;;;;5040037;28;20191;-71
2023/11/11 02:26:05;;;;;;;26.93;18.80;;;6.80;99.90;;;;;;5013867;28;20186;-74
2023/11/11 02:28:30;;;;;;;26.17;16.90;;;6.80;99.90;;;;;;5029922;28;20270;-76
2023/11/11 02:30:57;;;;;;;30.03;18.17;;;6.80;99.90;;;;;;5044167;28;20224;-74
2023/11/11 02:33:25;;;;;;;29.63;16.83;;;6.80;99.90;;;;;;5029973;28;20568;-73
2023/11/11 02:35:51;;;;;;;21.83;17.47;;;6.90;99.90;;;;;;5032088;28;20195;-74
2023/11/11 02:38:17;;;;;;;21.67;14.27;;;6.80;99.90;;;;;;5031637;28;20181;-73
2023/11/11 02:40:43;;;;;;;24.97;16.00;;;6.90;99.90;;;;;;5013817;28;20183;-71
2023/11/11 02:43:11;;;;;;;22.43;15.63;;;7.00;99.90;;;;;;5030136;28;20249;-73
2023/11/11 02:45:39;;;;;;;33.73;17.70;;;7.00;99.90;;;;;;5030621;28;20191;-73
2023/11/11 02:48:05;;;;;;;30.93;16.33;;;7.00;99.90;;;;;;5031147;28;20636;-73
2023/11/11 02:50:31;;;;;;;24.50;16.20;;;7.00;99.90;;;;;;5022719;28;20184;-72
2023/11/11 02:52:56;;;;;;;27.63;17.27;;;6.90;99.90;;;;;;5042569;28;20273;-73
2023/11/11 02:55:22;;;;;;;24.37;16.43;;;6.90;99.90;;;;;;5041552;28;20548;-73
2023/11/11 02:57:48;;;;;;;26.67;16.93;;;6.80;99.90;;;;;;5030952;28;20266;-72
2023/11/11 03:00:13;;;;;;;34.50;17.17;;;6.80;99.90;;;;;;5030143;28;20179;-73
2023/11/11 03:02:40;;;;;;;32.53;19.33;;;6.80;99.90;;;;;;5030992;28;20180;-73
2023/11/11 03:05:09;;;;;;;31.17;19.70;;;6.80;99.90;;;;;;5031143;28;20211;-74
2023/11/11 03:07:35;;;;;;;40.33;21.40;;;6.80;99.90;;;;;;5024703;28;20199;-73
2023/11/11 03:10:05;;;;;;;33.93;21.13;;;6.90;99.90;;;;;;5030823;28;20176;-72
2023/11/11 03:12:34;;;;;;;47.33;23.60;;;6.90;99.90;;;;;;5028743;28;20183;-73
2023/11/11 03:15:03;;;;;;;38.17;22.63;;;6.90;99.90;;;;;;5029566;28;20257;-72
2023/11/11 03:17:29;;;;;;;36.73;23.13;;;6.90;99.90;;;;;;5030214;28;20195;-75
2023/11/11 03:19:56;;;;;;;39.17;21.43;;;6.90;99.90;;;;;;5013599;28;20179;-74
2023/11/11 03:22:22;;;;;;;37.37;21.03;;;6.90;99.90;;;;;;5030319;28;20717;-74
2023/11/11 03:24:47;;;;;;;42.90;22.33;;;6.90;99.90;;;;;;5013351;28;20215;-73
2023/11/11 03:27:13;;;;;;;32.93;20.63;;;6.80;99.90;;;;;;5030924;28;20700;-74
2023/11/11 03:29:38;;;;;;;29.73;20.27;;;6.90;99.90;;;;;;5029825;28;20187;-71
2023/11/11 03:32:04;;;;;;;30.90;18.23;;;6.80;99.90;;;;;;5030354;28;20191;-72
2023/11/11 03:34:30;;;;;;;33.90;16.97;;;6.90;99.90;;;;;;5047109;28;20203;-72
2023/11/11 03:36:56;;;;;;;28.70;17.33;;;6.90;99.90;;;;;;5038887;28;20183;-71
2023/11/11 03:39:22;;;;;;;27.00;16.23;;;6.90;99.90;;;;;;5014971;28;20246;-71
2023/11/11 03:41:47;;;;;;;26.20;15.40;;;6.90;99.90;;;;;;5039805;28;20191;-70
2023/11/11 03:44:13;;;;;;;22.77;14.00;;;6.90;99.90;;;;;;5031914;28;20215;-70
2023/11/11 03:46:39;;;;;;;23.63;14.17;;;6.90;99.90;;;;;;5050915;28;20187;-71
2023/11/11 03:49:05;;;;;;;22.97;14.03;;;6.90;99.90;;;;;;5033201;28;20172;-71
2023/11/11 03:51:31;;;;;;;26.73;15.10;;;6.90;99.90;;;;;;5030786;28;20179;-71
2023/11/11 03:53:56;;;;;;;22.37;12.67;;;6.80;99.90;;;;;;5030165;28;20207;-72
2023/11/11 03:56:24;;;;;;;20.80;12.77;;;6.80;99.90;;;;;;5028438;28;20183;-69
2023/11/11 03:58:50;;;;;;;20.57;11.60;;;6.70;99.90;;;;;;5029132;28;20183;-73
2023/11/11 04:01:15;;;;;;;17.93;10.83;;;6.70;99.90;;;;;;5029689;28;20182;-70
2023/11/11 04:03:43;;;;;;;16.80;11.47;;;6.70;99.90;;;;;;5030342;28;20239;-70
2023/11/11 04:06:12;;;;;;;17.70;10.83;;;6.70;99.90;;;;;;5022271;28;20479;-72
2023/11/11 04:08:39;;;;;;;16.57;10.63;;;6.70;99.90;;;;;;5032089;28;20183;-72
2023/11/11 04:11:08;;;;;;;16.60;10.23;;;6.70;99.90;;;;;;5029702;28;20188;-71
2023/11/11 04:13:37;;;;;;;13.27;10.00;;;6.80;99.90;;;;;;5032068;28;20200;-71
2023/11/11 04:16:03;;;;;;;10.47;8.53;;;6.80;99.90;;;;;;5034519;28;20459;-70
2023/11/11 04:18:29;;;;;;;18.30;9.63;;;6.90;99.90;;;;;;5030915;28;20560;-70
2023/11/11 04:20:54;;;;;;;18.93;10.70;;;6.90;99.90;;;;;;5033944;28;20187;-70
2023/11/11 04:23:22;;;;;;;18.67;10.40;;;6.90;99.90;;;;;;5032357;28;20211;-70
2023/11/11 04:25:47;;;;;;;13.83;9.83;;;6.80;99.90;;;;;;5032089;28;20653;-70
2023/11/11 04:28:14;;;;;;;18.70;9.93;;;6.80;99.90;;;;;;5033465;28;20171;-71
2023/11/11 04:30:40;;;;;;;20.03;11.00;;;6.80;99.90;;;;;;5033706;28;20175;-70
2023/11/11 04:33:05;;;;;;;19.40;11.30;;;6.80;99.90;;;;;;5032645;28;20707;-70
2023/11/11 04:35:31;;;;;;;10.47;9.37;;;6.80;99.90;;;;;;5031837;28;20179;-71
2023/11/11 04:37:57;;;;;;;14.50;9.20;;;6.70;99.90;;;;;;5033858;28;20179;-69
2023/11/11 04:40:24;;;;;;;11.03;8.93;;;6.70;99.90;;;;;;5033392;28;20186;-70
2023/11/11 04:42:49;;;;;;;10.47;8.70;;;6.70;99.90;;;;;;5033234;28;20183;-70
2023/11/11 04:45:15;;;;;;;13.57;8.50;;;6.70;99.90;;;;;;5021647;23;20239;-87
2023/11/11 04:47:41;;;;;;;9.00;7.50;;;6.70;99.90;;;;;;4971878;28;20189;-87
2023/11/11 04:50:07;;;;;;;10.50;7.80;;;6.80;99.90;;;;;;4979740;28;20205;-87
2023/11/11 04:52:35;;;;;;;9.03;7.07;;;6.80;99.90;;;;;;4996177;28;20239;-88
2023/11/11 04:55:01;;;;;;;11.40;7.63;;;6.80;99.90;;;;;;4982689;28;20560;-87
2023/11/11 04:57:26;;;;;;;12.73;6.77;;;6.80;99.90;;;;;;4981495;28;20254;-88
2023/11/11 04:59:52;;;;;;;10.93;6.27;;;6.80;99.90;;;;;;4983650;28;20205;-88
2023/11/11 05:02:17;;;;;;;13.33;6.17;;;6.80;99.90;;;;;;5004566;28;20193;-87
2023/11/11 05:04:44;;;;;;;5.90;5.40;;;6.90;99.90;;;;;;4998714;28;20219;-88
2023/11/11 05:07:14;;;;;;;9.97;6.83;;;6.90;99.90;;;;;;4979567;28;20181;-87
2023/11/11 05:09:40;;;;;;;7.13;6.53;;;6.90;99.90;;;;;;4980240;28;20180;-87
2023/11/11 05:12:08;;;;;;;12.23;6.53;;;6.90;99.90;;;;;;4980328;28;20191;-87
2023/11/11 05:14:34;;;;;;;10.70;6.97;;;6.90;99.90;;;;;;4980647;28;21274;-87
2023/11/11 05:17:07;;;;;;;12.57;7.00;;;6.90;99.90;;;;;;4996639;28;20274;-87
2023/11/11 05:19:33;;;;;;;8.20;6.80;;;6.90;99.90;;;;;;4980762;28;20180;-87
2023/11/11 05:21:58;;;;;;;8.20;7.23;;;6.90;99.90;;;;;;4979905;28;20316;-87
2023/11/11 05:24:24;;;;;;;9.50;6.87;;;6.90;99.90;;;;;;4980473;28;20295;-88
2023/11/11 05:26:50;;;;;;;9.93;7.90;;;6.90;99.90;;;;;;4998193;28;20175;-88
2023/11/11 05:29:16;;;;;;;9.10;8.20;;;6.90;99.90;;;;;;4980687;28;20208;-86
2023/11/11 05:31:42;;;;;;;10.57;7.77;;;6.90;99.90;;;;;;4980983;28;20200;-87
2023/11/11 05:34:07;;;;;;;15.57;8.90;;;6.90;99.90;;;;;;4998571;28;20187;-89
2023/11/11 05:36:33;;;;;;;11.53;8.13;;;6.90;99.90;;;;;;4981449;28;20259;-89
2023/11/11 05:39:01;;;;;;;16.40;9.47;;;6.90;99.90;;;;;;4981078;28;20177;-89
2023/11/11 05:41:32;;;;;;;13.03;10.00;;;6.90;99.90;;;;;;4980853;28;20582;-90
2023/11/11 05:43:58;;;;;;;15.17;10.60;;;6.80;99.90;;;;;;4965974;28;20251;-87
2023/11/11 05:46:24;;;;;;;15.63;10.30;;;6.90;99.90;;;;;;4977501;28;20213;-87
2023/11/11 05:48:50;;;;;;;13.80;10.53;;;6.80;99.90;;;;;;4985994;28;20189;-87
2023/11/11 05:51:17;;;;;;;17.33;11.97;;;6.80;99.90;;;;;;4980183;28;20215;-87
2023/11/11 05:53:42;;;;;;;15.90;12.10;;;6.70;99.90;;;;;;4999177;28;20173;-87
2023/11/11 05:56:09;;;;;;;13.80;9.50;;;6.80;99.90;;;;;;5000232;28;20219;-87
2023/11/11 05:58:36;;;;;;;21.57;11.97;;;6.70;99.90;;;;;;4979477;28;20354;-86
2023/11/11 06:01:07;;;;;;;20.30;11.63;;;6.60;99.90;;;;;;4999633;28;20200;-86
2023/11/11 06:03:32;;;;;;;17.20;11.87;;;6.60;99.90;;;;;;4982103;28;20228;-86
2023/11/11 06:06:02;;;;;;;14.80;11.40;;;6.50;99.90;;;;;;4981947;28;20202;-87
2023/11/11 06:08:28;;;;;;;16.60;11.13;;;6.50;99.90;;;;;;4998189;28;20256;-87
2023/11/11 06:10:55;;;;;;;20.80;12.23;;;6.50;99.90;;;;;;4979929;28;20683;-86
2023/11/11 06:13:21;;;;;;;15.77;11.13;;;6.40;99.90;;;;;;4990634;28;20188;-87
2023/11/11 06:15:46;;;;;;;22.43;12.50;;;6.40;99.90;;;;;;4981187;28;20173;-87
2023/11/11 06:18:12;;;;;;;19.43;12.03;;;6.40;99.90;;;;;;4981086;28;20635;-87
2023/11/11 06:20:38;;;;;;;16.03;11.97;;;6.40;99.90;;;;;;4978892;28;20213;-87
2023/11/11 06:23:04;;;;;;;20.37;11.97;;;6.40;99.90;;;;;;4997402;28;20173;-87
2023/11/11 06:25:31;;;;;;;22.37;13.47;;;6.30;99.90;;;;;;4980380;28;20169;-87
2023/11/11 06:28:00;;;;;;;19.97;12.37;;;6.30;99.90;;;;;;4979346;28;20208;-88
2023/11/11 06:30:26;;;;;;;17.63;12.17;;;6.30;99.90;;;;;;4982582;28;20279;-88
2023/11/11 06:32:53;;;;;;;15.70;11.17;;;6.30;99.90;;;;;;5004422;28;20192;-88
2023/11/11 06:35:26;;;;;;;15.57;12.23;;;6.20;99.90;;;;;;4990695;28;20179;-87
2023/11/11 06:37:53;;;;;;;17.40;13.20;;;6.20;99.90;;;;;;4978960;28;20189;-87
2023/11/11 06:40:19;;;;;;;16.53;13.33;;;6.30;99.90;;;;;;4980454;28;20281;-87
2023/11/11 06:42:44;;;;;;;29.43;13.87;;;6.20;99.90;;;;;;4963880;28;20196;-87
2023/11/11 06:45:14;;;;;;;15.87;12.30;;;6.10;99.90;;;;;;4961396;28;20236;-87
2023/11/11 06:47:40;;;;;;;44.60;23.63;;;6.20;99.90;;;;;;4962671;28;20195;-87
2023/11/11 06:50:07;;;;;;;26.33;16.90;;;6.20;99.90;;;;;;4979523;28;20243;-87
2023/11/11 06:52:35;;;;;;;22.77;13.60;;;6.20;99.90;;;;;;4979793;28;20279;-88
2023/11/11 06:55:02;;;;;;;22.63;13.83;;;6.10;99.90;;;;;;4979275;28;20228;-87
2023/11/11 06:57:28;;;;;;;20.30;13.10;;;6.10;99.90;;;;;;4979688;28;20235;-88
2023/11/11 06:59:54;;;;;;;21.63;15.03;;;6.10;99.90;;;;;;4976748;28;20205;-87
2023/11/11 07:02:22;;;;;;;25.50;12.77;;;6.10;99.90;;;;;;4997083;28;20184;-87
2023/11/11 07:04:53;;;;;;;22.80;13.63;;;6.00;99.90;;;;;;4979249;28;20679;-88
2023/11/11 07:07:24;;;;;;;24.90;13.70;;;6.00;99.90;;;;;;4979032;28;20288;-87
2023/11/11 07:09:51;;;;;;;20.53;14.43;;;5.90;99.90;;;;;;4991055;28;20193;-87
2023/11/11 07:12:19;;;;;;;19.03;13.33;;;6.00;99.90;;;;;;4980685;28;20184;-88
2023/11/11 07:14:45;;;;;;;18.07;12.77;;;5.90;99.90;;;;;;4979511;28;20196;-87
2023/11/11 07:17:11;;;;;;;21.10;12.63;;;5.80;99.90;;;;;;4995548;28;20180;-87
2023/11/11 07:19:38;;;;;;;22.40;13.77;;;5.80;99.90;;;;;;4982272;28;20177;-86
2023/11/11 07:22:04;;;;;;;23.27;14.13;;;5.80;99.90;;;;;;4984013;28;20184;-87
2023/11/11 07:24:30;;;;;;;21.27;15.20;;;5.80;99.90;;;;;;4980846;28;20197;-84
2023/11/11 07:26:56;;;;;;;20.57;14.63;;;5.70;99.90;;;;;;4980385;28;20177;-86
2023/11/11 07:29:25;;;;;;;26.50;16.20;;;5.80;99.90;;;;;;4981372;28;20212;-87
2023/11/11 07:31:52;;;;;;;26.40;13.83;;;5.70;99.90;;;;;;4978228;28;20606;-90
2023/11/11 07:34:17;;;;;;;27.07;15.53;;;5.80;99.90;;;;;;4961299;28;20186;-86
2023/11/11 07:36:43;;;;;;;21.23;13.87;;;5.80;99.90;;;;;;4977302;28;20181;-88
2023/11/11 07:39:09;;;;;;;23.13;14.57;;;5.80;99.90;;;;;;4984956;28;20185;-87
2023/11/11 07:41:35;;;;;;;31.13;14.93;;;5.90;99.90;;;;;;4981281;28;20600;-87
2023/11/11 07:44:04;;;;;;;26.93;16.30;;;6.00;99.90;;;;;;4980669;28;20223;-87
2023/11/11 07:46:32;;;;;;;24.23;15.70;;;5.90;99.90;;;;;;4980574;28;20192;-86
2023/11/11 07:48:59;;;;;;;27.47;16.13;;;5.90;99.90;;;;;;5001459;28;20710;-87
2023/11/11 07:51:25;;;;;;;27.57;15.40;;;6.00;99.90;;;;;;4982625;28;20290;-87
2023/11/11 07:53:51;;;;;;;30.60;16.13;;;6.20;99.90;;;;;;4983925;28;20631;-86
2023/11/11 07:56:18;;;;;;;24.50;15.10;;;6.30;99.90;;;;;;4987191;28;20283;-86
2023/11/11 07:58:47;;;;;;;23.40;14.53;;;6.30;99.90;;;;;;4969780;28;20719;-87
2023/11/11 08:01:12;;;;;;;29.30;16.17;;;6.40;99.90;;;;;;4992014;28;20197;-88
2023/11/11 08:03:39;;;;;;;19.93;14.10;;;6.40;99.90;;;;;;4987961;28;20211;-85
2023/11/11 08:06:05;;;;;;;24.07;14.93;;;6.50;99.90;;;;;;4995674;28;20177;-86
2023/11/11 08:08:31;;;;;;;29.50;15.17;;;6.50;99.90;;;;;;5000214;28;20181;-86
2023/11/11 08:10:57;;;;;;;26.47;15.43;;;6.50;99.90;;;;;;4987073;28;20205;-87
2023/11/11 08:13:23;;;;;;;21.77;13.83;;;6.60;99.90;;;;;;4984496;28;20284;-86
2023/11/11 08:15:50;;;;;;;29.00;14.47;;;6.50;99.90;;;;;;4970600;28;20192;-86
2023/11/11 08:18:16;;;;;;;25.27;14.33;;;6.50;99.90;;;;;;4986896;28;20181;-87
2023/11/11 08:20:42;;;;;;;26.00;14.90;;;6.40;99.90;;;;;;4985991;28;20252;-88
2023/11/11 08:23:12;;;;;;;30.70;15.80;;;6.40;99.90;;;;;;4986016;28;20204;-88
2023/11/11 08:25:38;;;;;;;24.77;14.33;;;6.50;99.90;;;;;;4983450;28;20461;-87
2023/11/11 08:28:04;;;;;;;23.03;14.50;;;6.50;99.90;;;;;;4983667;28;20212;-88
2023/11/11 08:30:34;;;;;;;25.67;14.13;;;6.60;99.90;;;;;;5003616;28;20201;-87
2023/11/11 08:33:03;;;;;;;22.10;14.37;;;6.50;99.90;;;;;;4987597;28;20181;-87
2023/11/11 08:35:29;;;;;;;28.53;17.03;;;6.60;99.90;;;;;;4983583;28;20181;-87
2023/11/11 08:38:00;;;;;;;24.93;15.53;;;6.60;99.90;;;;;;5002719;28;20188;-88
2023/11/11 08:40:25;;;;;;;21.80;14.50;;;6.80;99.90;;;;;;4988499;28;20205;-88
2023/11/11 08:42:51;;;;;;;19.73;13.50;;;6.90;99.90;;;;;;4984157;28;20212;-86
2023/11/11 08:45:17;;;;;;;20.60;13.90;;;7.00;99.90;;;;;;4985336;28;20208;-87
2023/11/11 08:47:44;;;;;;;28.63;14.30;;;7.10;99.90;;;;;;4983910;28;20185;-87
2023/11/11 08:50:12;;;;;;;20.07;13.80;;;7.20;99.90;;;;;;4983842;28;20667;-88
2023/11/11 08:52:43;;;;;;;22.37;13.70;;;7.30;99.90;;;;;;4983400;28;20203;-87
2023/11/11 08:55:10;;;;;;;19.47;13.17;;;7.40;99.90;;;;;;4986980;28;20192;-88
2023/11/11 08:57:36;;;;;;;19.90;12.83;;;7.50;99.90;;;;;;4981029;28;20250;-87
2023/11/11 09:00:12;;;;;;;18.47;12.77;;;7.70;99.90;;;;;;4983922;28;20295;-87
2023/11/11 09:02:38;;;;;;;21.77;13.53;;;7.70;99.90;;;;;;4982596;28;20188;-86
2023/11/11 09:05:05;;;;;;;21.93;11.97;;;7.80;99.90;;;;;;4979932;28;20208;-88
2023/11/11 09:07:33;;;;;;;22.53;11.40;;;7.90;99.90;;;;;;4981318;28;20189;-88
2023/11/11 09:10:00;;;;;;;19.90;12.10;;;8.00;99.90;;;;;;4978967;28;20208;-88
2023/11/11 09:12:26;;;;;;;16.90;11.20;;;8.10;99.90;;;;;;4981229;28;20267;-87
2023/11/11 09:14:52;;;;;;;16.17;10.00;;;8.20;99.90;;;;;;4984079;28;20208;-87
2023/11/11 09:17:20;;;;;;;13.90;9.53;;;8.30;99.90;;;;;;5013422;28;20258;-88
2023/11/11 09:19:46;;;;;;;13.20;9.73;;;8.50;99.90;;;;;;4980712;28;20216;-88
2023/11/11 09:22:12;;;;;;;13.93;9.17;;;8.60;99.90;;;;;;4980702;28;20193;-88
2023/11/11 09:24:37;;;;;;;10.37;8.93;;;8.70;99.90;;;;;;4949387;28;20220;-88
2023/11/11 09:27:04;;;;;;;11.47;8.97;;;8.80;99.90;;;;;;4999392;28;20631;-87
2023/11/11 09:29:29;;;;;;;22.63;9.67;;;8.80;99.90;;;;;;4983001;28;20181;-88
2023/11/11 09:31:55;;;;;;;9.67;8.70;;;8.80;99.90;;;;;;4982450;28;20779;-88
2023/11/11 09:34:22;;;;;;;12.07;8.30;;;8.90;99.90;;;;;;4981783;28;20571;-87
2023/11/11 09:36:47;;;;;;;10.73;8.40;;;9.00;99.90;;;;;;4973962;28;20702;-89
2023/11/11 09:39:13;;;;;;;15.03;8.20;;;9.10;99.90;;;;;;4987244;28;20177;-88
2023/11/11 09:41:40;;;;;;;9.30;7.90;;;9.10;99.90;;;;;;4974388;28;20231;-87
2023/11/11 09:44:07;;;;;;;11.27;7.40;;;9.10;99.90;;;;;;4976395;28;20213;-89
2023/11/11 09:46:42;;;;;;;10.17;7.83;;;9.10;99.90;;;;;;4979871;28;20232;-88
2023/11/11 09:49:09;;;;;;;13.97;7.80;;;9.20;99.90;;;;;;4981358;28;20180;-88
2023/11/11 09:51:38;;;;;;;8.47;7.20;;;9.40;99.90;;;;;;4979799;28;20655;-88
2023/11/11 09:54:05;;;;;;;12.23;7.53;;;9.50;99.90;;;;;;4979175;28;20177;-88
2023/11/11 09:56:31;;;;;;;10.87;7.10;;;9.50;99.90;;;;;;4976952;28;20246;-89
2023/11/11 09:59:06;;;;;;;8.37;6.60;;;9.40;99.90;;;;;;4973445;28;20184;-88
2023/11/11 10:01:32;;;;;;;14.00;7.87;;;9.30;99.90;;;;;;4979676;28;20242;-90
2023/11/11 10:03:58;;;;;;;9.37;6.97;;;9.20;99.90;;;;;;4984735;28;20718;-88
2023/11/11 10:06:24;;;;;;;17.23;7.57;;;9.30;99.90;;;;;;4976750;28;20180;-88
2023/11/11 10:08:52;;;;;;;8.00;7.03;;;9.40;99.90;;;;;;4984501;28;20723;-89
2023/11/11 10:11:18;;;;;;;9.57;7.10;;;9.50;99.90;;;;;;5005401;28;20746;-88
2023/11/11 10:13:45;;;;;;;9.37;6.40;;;9.50;99.90;;;;;;4978272;28;20535;-88
2023/11/11 10:16:17;;;;;;;9.40;6.00;;;9.40;99.90;;;;;;4977248;28;20189;-88
2023/11/11 10:18:45;;;;;;;7.67;6.87;;;9.40;99.90;;;;;;4978794;28;20312;-91
2023/11/11 10:21:13;;;;;;;10.53;7.00;;;9.30;99.90;;;;;;4980306;28;20208;-88
2023/11/11 10:23:40;;;;;;;8.70;6.73;;;9.40;99.90;;;;;;4977463;28;20204;-87
2023/11/11 10:26:06;;;;;;;8.43;6.73;;;9.40;99.90;;;;;;4985084;28;20195;-88
2023/11/11 10:28:32;;;;;;;9.23;6.53;;;9.50;99.90;;;;;;4983900;28;20211;-88
2023/11/11 10:31:10;;;;;;;11.17;6.97;;;9.60;99.90;;;;;;4975638;28;20204;-88
2023/11/11 10:33:57;;;;;;;8.70;6.37;;;9.80;99.90;;;;;;4985658;28;20216;-89
2023/11/11 10:36:23;;;;;;;9.03;6.60;;;10.10;99.90;;;;;;4979864;28;20191;-87
2023/11/11 10:38:53;;;;;;;8.50;5.93;;;10.30;99.90;;;;;;4980176;28;20192;-88
2023/11/11 10:41:20;;;;;;;8.13;5.87;;;10.40;99.90;;;;;;4982828;28;20213;-88
2023/11/11 10:43:46;;;;;;;8.83;6.57;;;10.40;99.90;;;;;;4979233;28;20264;-89
2023/11/11 10:46:13;;;;;;;8.20;5.87;;;10.60;99.90;;;;;;4982879;28;20341;-89
2023/11/11 10:48:40;;;;;;;7.17;5.83;;;10.80;99.90;;;;;;4992157;28;20204;-89
2023/11/11 10:51:07;;;;;;;7.67;5.20;;;11.20;99.90;;;;;;4989114;28;20203;-88
2023/11/11 10:53:36;;;;;;;5.80;5.00;;;11.60;99.90;;;;;;4970672;28;20197;-89
2023/11/11 10:56:03;;;;;;;7.77;5.37;;;11.70;99.90;;;;;;4980906;28;20185;-88
2023/11/11 10:58:32;;;;;;;5.83;5.20;;;11.60;99.90;;;;;;4972349;28;20206;-89
2023/11/11 11:00:58;;;;;;;5.77;5.13;;;11.50;99.90;;;;;;4977863;28;20208;-92
2023/11/11 11:03:26;;;;;;;7.07;5.07;;;11.50;99.90;;;;;;4966476;28;20211;-88
2023/11/11 11:06:15;;;;;;;7.53;5.67;;;11.60;99.90;;;;;;4977784;28;20652;-88
2023/11/11 11:08:53;;;;;;;9.03;4.83;;;11.50;99.90;;;;;;4974770;28;20188;-89
2023/11/11 11:11:35;;;;;;;7.67;5.23;;;11.40;99.90;;;;;;4981796;28;20264;-88
2023/11/11 11:14:20;;;;;;;5.00;4.50;;;11.10;99.90;;;;;;4991911;28;20239;-88
2023/11/11 11:16:46;;;;;;;7.23;5.23;;;10.90;99.90;;;;;;4979189;28;20193;-88
2023/11/11 11:19:19;;;;;;;5.63;5.13;;;10.70;99.90;;;;;;4971280;28;20184;-88
2023/11/11 11:21:46;;;;;;;7.90;4.70;;;10.60;99.90;;;;;;4978914;28;20216;-88
2023/11/11 11:24:14;;;;;;;6.83;5.43;;;10.40;1.00;;;;;;4976997;28;20209;-89
2023/11/11 11:26:39;;;;;;;5.97;4.97;;;10.30;99.90;;;;;;4978821;28;20185;-88
2023/11/11 11:29:17;;;;;;;7.10;5.20;;;10.40;99.90;;;;;;4993342;28;20192;-89
2023/11/11 11:32:08;;;;;;;6.00;4.57;;;10.50;1.00;;;;;;4977864;28;20204;-89
2023/11/11 11:34:39;;;;;;;10.37;5.33;;;10.70;1.00;;;;;;4978150;28;20187;-88
2023/11/11 11:37:11;;;;;;;9.20;5.00;;;10.80;1.00;;;;;;4979050;28;20189;-89
2023/11/11 11:39:58;;;;;;;5.03;4.47;;;10.70;1.00;;;;;;4975129;28;20196;-88
2023/11/11 11:42:27;;;;;;;8.10;4.63;;;10.70;1.00;;;;;;4990821;28;20271;-88
2023/11/11 11:44:54;;;;;;;7.10;4.60;;;10.60;1.00;;;;;;4973111;28;20212;-88
2023/11/11 11:47:22;;;;;;;8.17;5.83;;;10.50;1.00;;;;;;4975876;28;20719;-88
2023/11/11 11:49:49;;;;;;;9.13;5.60;;;10.40;1.00;;;;;;4976240;28;20219;-87
2023/11/11 11:52:16;;;;;;;9.80;4.57;;;10.40;99.90;;;;;;4978013;28;20184;-88
2023/11/11 11:54:42;;;;;;;5.10;4.37;;;10.40;1.00;;;;;;4978315;28;20181;-87
2023/11/11 11:57:08;;;;;;;5.30;4.27;;;10.40;1.00;;;;;;4979018;28;20185;-88
2023/11/11 11:59:34;;;;;;;5.53;4.50;;;10.40;1.00;;;;;;4978130;28;20189;-88
2023/11/11 12:02:02;;;;;;;6.67;4.93;;;10.50;1.00;;;;;;4977340;28;20180;-88
2023/11/11 12:04:28;;;;;;;5.53;4.97;;;10.40;99.90;;;;;;4978201;28;20216;-88
2023/11/11 12:06:54;;;;;;;6.53;4.63;;;10.30;1.00;;;;;;4976901;28;20718;-88
2023/11/11 12:09:20;;;;;;;4.83;4.33;;;10.30;1.00;;;;;;4978513;28;20177;-88
2023/11/11 12:11:46;;;;;;;5.63;4.50;;;10.20;99.90;;;;;;4977016;28;20275;-87
2023/11/11 12:14:17;;;;;;;6.23;4.77;;;10.20;1.00;;;;;;4997626;28;20196;-91
2023/11/11 12:16:52;;;;;;;5.97;5.37;;;10.30;99.90;;;;;;4980011;28;20726;-89
2023/11/11 12:19:24;;;;;;;4.77;4.37;;;10.40;1.00;;;;;;4979422;28;20717;-89
2023/11/11 12:21:51;;;;;;;7.07;4.80;;;10.40;99.90;;;;;;4977639;28;20184;-88
2023/11/11 12:24:22;;;;;;;7.30;5.00;;;10.40;99.90;;;;;;4976134;28;20232;-88
2023/11/11 12:26:50;;;;;;;7.60;4.77;;;10.40;1.00;;;;;;4994677;28;20192;-89
2023/11/11 12:29:16;;;;;;;4.27;3.87;;;10.30;99.90;;;;;;4976615;28;20259;-89
2023/11/11 12:31:46;;;;;;;6.60;4.17;;;10.30;99.90;;;;;;4975138;28;20197;-88
2023/11/11 12:34:14;;;;;;;5.90;4.60;;;10.30;99.90;;;;;;4976895;28;20181;-88
2023/11/11 12:36:41;;;;;;;5.10;4.60;;;10.30;99.90;;;;;;4976348;28;20201;-88
2023/11/11 12:39:09;;;;;;;6.30;4.60;;;10.40;1.00;;;;;;4976738;28;20235;-89
2023/11/11 12:41:38;;;;;;;5.60;4.80;;;10.40;99.90;;;;;;4967018;28;20545;-88
2023/11/11 12:44:05;;;;;;;5.07;4.67;;;10.40;99.90;;;;;;4989201;28;20205;-88